sensor_id;sensor_type;location;lat;lon;timestamp;P1;durP1;ratioP1;P2;durP2;ratioP2
69738;SDS011;66905;51.012;4.724;2023-01-28T00:02:05;10.15;;;6.90;;
69738;SDS011;66905;51.012;4.724;2023-01-28T00:04:31;11.23;;;7.40;;
69738;SDS011;66905;51.012;4.724;2023-01-28T00:06:57;12.07;;;7.25;;
69738;SDS011;66905;51.012;4.724;2023-01-28T00:09:22;16.42;;;9.20;;
69738;SDS011;66905;51.012;4.724;2023-01-28T00:11:48;12.20;;;7.13;;
69738;SDS011;66905;51.012;4.724;2023-01-28T00:14:14;13.73;;;6.85;;
69738;SDS011;66905;51.012;4.724;2023-01-28T00:16:39;8.52;;;6.32;;
69738;SDS011;66905;51.012;4.724;2023-01-28T00:19:08;10.45;;;6.68;;
69738;SDS011;66905;51.012;4.724;2023-01-28T00:21:33;11.85;;;6.65;;
69738;SDS011;66905;51.012;4.724;2023-01-28T00:23:59;9.57;;;5.97;;
69738;SDS011;66905;51.012;4.724;2023-01-28T00:26:25;10.07;;;6.25;;
69738;SDS011;66905;51.012;4.724;2023-01-28T00:28:52;10.82;;;6.93;;
69738;SDS011;66905;51.012;4.724;2023-01-28T00:31:19;8.77;;;6.35;;
69738;SDS011;66905;51.012;4.724;2023-01-28T00:33:47;10.35;;;6.43;;
69738;SDS011;66905;51.012;4.724;2023-01-28T00:36:14;10.23;;;6.60;;
69738;SDS011;66905;51.012;4.724;2023-01-28T00:38:41;10.25;;;6.75;;
69738;SDS011;66905;51.012;4.724;2023-01-28T00:41:11;10.55;;;6.68;;
69738;SDS011;66905;51.012;4.724;2023-01-28T00:43:38;9.90;;;6.72;;
69738;SDS011;66905;51.012;4.724;2023-01-28T00:46:06;11.50;;;7.32;;
69738;SDS011;66905;51.012;4.724;2023-01-28T00:48:33;11.95;;;6.63;;
69738;SDS011;66905;51.012;4.724;2023-01-28T00:51:05;13.50;;;7.13;;
69738;SDS011;66905;51.012;4.724;2023-01-28T00:53:32;11.30;;;7.28;;
69738;SDS011;66905;51.012;4.724;2023-01-28T00:56:02;12.38;;;6.95;;
69738;SDS011;66905;51.012;4.724;2023-01-28T00:58:30;11.30;;;6.32;;
69738;SDS011;66905;51.012;4.724;2023-01-28T01:00:56;11.35;;;7.25;;
69738;SDS011;66905;51.012;4.724;2023-01-28T01:03:23;11.25;;;7.00;;
69738;SDS011;66905;51.012;4.724;2023-01-28T01:05:49;8.63;;;6.03;;
69738;SDS011;66905;51.012;4.724;2023-01-28T01:08:14;9.75;;;6.13;;
69738;SDS011;66905;51.012;4.724;2023-01-28T01:10:43;10.15;;;6.72;;
69738;SDS011;66905;51.012;4.724;2023-01-28T01:13:11;9.95;;;6.80;;
69738;SDS011;66905;51.012;4.724;2023-01-28T01:15:36;11.32;;;6.70;;
69738;SDS011;66905;51.012;4.724;2023-01-28T01:18:02;10.85;;;7.43;;
69738;SDS011;66905;51.012;4.724;2023-01-28T01:20:28;11.88;;;6.63;;
69738;SDS011;66905;51.012;4.724;2023-01-28T01:22:57;13.15;;;7.72;;
69738;SDS011;66905;51.012;4.724;2023-01-28T01:25:26;11.18;;;7.22;;
69738;SDS011;66905;51.012;4.724;2023-01-28T01:27:54;15.55;;;8.45;;
69738;SDS011;66905;51.012;4.724;2023-01-28T01:30:19;14.82;;;7.53;;
69738;SDS011;66905;51.012;4.724;2023-01-28T01:32:47;13.45;;;8.48;;
69738;SDS011;66905;51.012;4.724;2023-01-28T01:35:13;12.77;;;7.50;;
69738;SDS011;66905;51.012;4.724;2023-01-28T01:37:42;14.60;;;8.25;;
69738;SDS011;66905;51.012;4.724;2023-01-28T01:40:11;11.93;;;6.70;;
69738;SDS011;66905;51.012;4.724;2023-01-28T01:42:37;14.38;;;8.02;;
69738;SDS011;66905;51.012;4.724;2023-01-28T01:52:44;13.55;;;8.20;;
69738;SDS011;66905;51.012;4.724;2023-01-28T01:55:13;12.75;;;7.88;;
69738;SDS011;66905;51.012;4.724;2023-01-28T01:57:45;14.60;;;8.52;;
69738;SDS011;66905;51.012;4.724;2023-01-28T02:00:14;15.00;;;7.50;;
69738;SDS011;66905;51.012;4.724;2023-01-28T02:02:45;13.50;;;8.48;;
69738;SDS011;66905;51.012;4.724;2023-01-28T02:05:13;14.25;;;8.07;;
69738;SDS011;66905;51.012;4.724;2023-01-28T02:07:42;15.32;;;8.85;;
69738;SDS011;66905;51.012;4.724;2023-01-28T02:10:11;15.80;;;8.43;;
69738;SDS011;66905;51.012;4.724;2023-01-28T02:12:59;13.15;;;7.20;;
69738;SDS011;66905;51.012;4.724;2023-01-28T02:15:24;14.05;;;7.90;;
69738;SDS011;66905;51.012;4.724;2023-01-28T02:17:53;14.05;;;7.80;;
69738;SDS011;66905;51.012;4.724;2023-01-28T02:20:21;17.08;;;8.05;;
69738;SDS011;66905;51.012;4.724;2023-01-28T02:25:40;15.43;;;7.65;;
69738;SDS011;66905;51.012;4.724;2023-01-28T02:33:22;15.02;;;8.02;;
69738;SDS011;66905;51.012;4.724;2023-01-28T02:36:01;17.77;;;8.68;;
69738;SDS011;66905;51.012;4.724;2023-01-28T02:38:38;15.77;;;7.97;;
69738;SDS011;66905;51.012;4.724;2023-01-28T02:41:11;13.80;;;7.07;;
69738;SDS011;66905;51.012;4.724;2023-01-28T02:43:44;12.00;;;7.68;;
69738;SDS011;66905;51.012;4.724;2023-01-28T02:46:33;15.68;;;8.23;;
69738;SDS011;66905;51.012;4.724;2023-01-28T02:49:29;14.77;;;8.38;;
69738;SDS011;66905;51.012;4.724;2023-01-28T02:54:37;13.65;;;7.78;;
69738;SDS011;66905;51.012;4.724;2023-01-28T02:57:08;15.00;;;8.20;;
69738;SDS011;66905;51.012;4.724;2023-01-28T02:59:41;16.85;;;7.93;;
69738;SDS011;66905;51.012;4.724;2023-01-28T03:02:33;14.23;;;8.18;;
69738;SDS011;66905;51.012;4.724;2023-01-28T03:05:25;13.90;;;7.95;;
69738;SDS011;66905;51.012;4.724;2023-01-28T03:07:55;14.77;;;7.95;;
69738;SDS011;66905;51.012;4.724;2023-01-28T03:10:22;15.23;;;7.63;;
69738;SDS011;66905;51.012;4.724;2023-01-28T03:12:54;13.98;;;7.78;;
69738;SDS011;66905;51.012;4.724;2023-01-28T03:15:44;14.68;;;8.05;;
69738;SDS011;66905;51.012;4.724;2023-01-28T03:18:43;17.77;;;8.93;;
69738;SDS011;66905;51.012;4.724;2023-01-28T03:21:33;14.00;;;6.88;;
69738;SDS011;66905;51.012;4.724;2023-01-28T03:27:18;17.60;;;9.10;;
69738;SDS011;66905;51.012;4.724;2023-01-28T03:30:10;15.27;;;8.35;;
69738;SDS011;66905;51.012;4.724;2023-01-28T03:32:58;15.55;;;7.68;;
69738;SDS011;66905;51.012;4.724;2023-01-28T03:35:43;13.77;;;7.78;;
69738;SDS011;66905;51.012;4.724;2023-01-28T03:38:29;16.90;;;8.43;;
69738;SDS011;66905;51.012;4.724;2023-01-28T03:41:05;13.40;;;7.80;;
69738;SDS011;66905;51.012;4.724;2023-01-28T03:43:33;16.10;;;8.85;;
69738;SDS011;66905;51.012;4.724;2023-01-28T03:46:00;12.98;;;7.40;;
69738;SDS011;66905;51.012;4.724;2023-01-28T03:48:27;14.93;;;7.55;;
69738;SDS011;66905;51.012;4.724;2023-01-28T03:50:58;13.10;;;7.57;;
69738;SDS011;66905;51.012;4.724;2023-01-28T03:53:24;12.73;;;7.93;;
69738;SDS011;66905;51.012;4.724;2023-01-28T03:55:51;14.68;;;7.97;;
69738;SDS011;66905;51.012;4.724;2023-01-28T03:58:18;15.65;;;8.48;;
69738;SDS011;66905;51.012;4.724;2023-01-28T04:00:45;15.52;;;8.50;;
69738;SDS011;66905;51.012;4.724;2023-01-28T04:03:12;16.33;;;8.73;;
69738;SDS011;66905;51.012;4.724;2023-01-28T04:05:44;16.02;;;9.05;;
69738;SDS011;66905;51.012;4.724;2023-01-28T04:08:22;15.53;;;8.90;;
69738;SDS011;66905;51.012;4.724;2023-01-28T04:10:51;15.13;;;8.63;;
69738;SDS011;66905;51.012;4.724;2023-01-28T04:13:17;15.80;;;8.30;;
69738;SDS011;66905;51.012;4.724;2023-01-28T04:15:43;12.90;;;7.70;;
69738;SDS011;66905;51.012;4.724;2023-01-28T04:18:09;14.73;;;7.35;;
69738;SDS011;66905;51.012;4.724;2023-01-28T04:20:35;13.77;;;7.68;;
69738;SDS011;66905;51.012;4.724;2023-01-28T04:23:02;13.73;;;8.52;;
69738;SDS011;66905;51.012;4.724;2023-01-28T04:25:28;13.65;;;7.82;;
69738;SDS011;66905;51.012;4.724;2023-01-28T04:27:58;13.95;;;8.45;;
69738;SDS011;66905;51.012;4.724;2023-01-28T04:30:24;14.55;;;7.97;;
69738;SDS011;66905;51.012;4.724;2023-01-28T04:32:50;14.60;;;7.68;;
69738;SDS011;66905;51.012;4.724;2023-01-28T04:35:16;12.00;;;7.53;;
69738;SDS011;66905;51.012;4.724;2023-01-28T04:37:42;13.68;;;8.27;;
69738;SDS011;66905;51.012;4.724;2023-01-28T04:40:09;14.55;;;8.45;;
69738;SDS011;66905;51.012;4.724;2023-01-28T04:42:36;15.07;;;7.88;;
69738;SDS011;66905;51.012;4.724;2023-01-28T04:45:01;13.75;;;7.65;;
69738;SDS011;66905;51.012;4.724;2023-01-28T04:47:27;11.63;;;7.18;;
69738;SDS011;66905;51.012;4.724;2023-01-28T04:49:55;17.23;;;8.48;;
69738;SDS011;66905;51.012;4.724;2023-01-28T04:52:21;16.20;;;7.88;;
69738;SDS011;66905;51.012;4.724;2023-01-28T04:54:47;10.73;;;6.75;;
69738;SDS011;66905;51.012;4.724;2023-01-28T04:57:15;14.30;;;7.60;;
69738;SDS011;66905;51.012;4.724;2023-01-28T04:59:40;14.73;;;7.70;;
69738;SDS011;66905;51.012;4.724;2023-01-28T05:02:08;11.85;;;6.68;;
69738;SDS011;66905;51.012;4.724;2023-01-28T05:04:34;10.60;;;6.53;;
69738;SDS011;66905;51.012;4.724;2023-01-28T05:07:00;12.27;;;7.32;;
69738;SDS011;66905;51.012;4.724;2023-01-28T05:09:26;12.48;;;6.68;;
69738;SDS011;66905;51.012;4.724;2023-01-28T05:11:54;16.00;;;7.70;;
69738;SDS011;66905;51.012;4.724;2023-01-28T05:14:20;13.02;;;7.13;;
69738;SDS011;66905;51.012;4.724;2023-01-28T05:16:48;13.35;;;7.82;;
69738;SDS011;66905;51.012;4.724;2023-01-28T05:19:14;12.55;;;6.70;;
69738;SDS011;66905;51.012;4.724;2023-01-28T05:21:40;11.32;;;7.50;;
69738;SDS011;66905;51.012;4.724;2023-01-28T05:24:06;14.43;;;7.45;;
69738;SDS011;66905;51.012;4.724;2023-01-28T05:26:34;13.95;;;7.63;;
69738;SDS011;66905;51.012;4.724;2023-01-28T05:28:59;12.40;;;7.50;;
69738;SDS011;66905;51.012;4.724;2023-01-28T05:31:25;12.68;;;7.30;;
69738;SDS011;66905;51.012;4.724;2023-01-28T05:33:51;13.55;;;7.15;;
69738;SDS011;66905;51.012;4.724;2023-01-28T05:36:17;10.13;;;6.25;;
69738;SDS011;66905;51.012;4.724;2023-01-28T05:38:43;11.80;;;6.78;;
69738;SDS011;66905;51.012;4.724;2023-01-28T05:41:08;11.30;;;6.97;;
69738;SDS011;66905;51.012;4.724;2023-01-28T05:43:34;11.88;;;6.57;;
69738;SDS011;66905;51.012;4.724;2023-01-28T05:46:00;11.23;;;6.80;;
69738;SDS011;66905;51.012;4.724;2023-01-28T05:48:26;13.88;;;6.90;;
69738;SDS011;66905;51.012;4.724;2023-01-28T05:50:54;12.30;;;6.68;;
69738;SDS011;66905;51.012;4.724;2023-01-28T05:53:20;12.65;;;7.35;;
69738;SDS011;66905;51.012;4.724;2023-01-28T05:55:47;10.98;;;6.22;;
69738;SDS011;66905;51.012;4.724;2023-01-28T05:58:13;10.18;;;6.53;;
69738;SDS011;66905;51.012;4.724;2023-01-28T06:00:39;11.98;;;7.22;;
69738;SDS011;66905;51.012;4.724;2023-01-28T06:03:04;9.93;;;6.95;;
69738;SDS011;66905;51.012;4.724;2023-01-28T06:05:30;10.20;;;6.68;;
69738;SDS011;66905;51.012;4.724;2023-01-28T06:07:56;10.27;;;5.80;;
69738;SDS011;66905;51.012;4.724;2023-01-28T06:10:21;10.75;;;5.93;;
69738;SDS011;66905;51.012;4.724;2023-01-28T06:12:47;11.00;;;6.47;;
69738;SDS011;66905;51.012;4.724;2023-01-28T06:15:13;12.85;;;7.13;;
69738;SDS011;66905;51.012;4.724;2023-01-28T06:17:38;9.93;;;6.43;;
69738;SDS011;66905;51.012;4.724;2023-01-28T06:20:04;11.60;;;6.40;;
69738;SDS011;66905;51.012;4.724;2023-01-28T06:22:34;11.95;;;7.32;;
69738;SDS011;66905;51.012;4.724;2023-01-28T06:25:05;12.68;;;6.82;;
69738;SDS011;66905;51.012;4.724;2023-01-28T06:27:34;12.07;;;6.53;;
69738;SDS011;66905;51.012;4.724;2023-01-28T06:30:00;11.85;;;6.88;;
69738;SDS011;66905;51.012;4.724;2023-01-28T06:32:26;9.45;;;5.97;;
69738;SDS011;66905;51.012;4.724;2023-01-28T06:34:52;12.40;;;6.93;;
69738;SDS011;66905;51.012;4.724;2023-01-28T06:37:18;11.13;;;6.32;;
69738;SDS011;66905;51.012;4.724;2023-01-28T06:39:43;12.68;;;7.63;;
69738;SDS011;66905;51.012;4.724;2023-01-28T06:42:09;12.18;;;6.50;;
69738;SDS011;66905;51.012;4.724;2023-01-28T06:44:35;11.27;;;6.30;;
69738;SDS011;66905;51.012;4.724;2023-01-28T06:47:01;11.80;;;7.13;;
69738;SDS011;66905;51.012;4.724;2023-01-28T06:49:26;10.07;;;6.20;;
69738;SDS011;66905;51.012;4.724;2023-01-28T06:51:54;14.13;;;7.28;;
69738;SDS011;66905;51.012;4.724;2023-01-28T06:54:20;11.38;;;6.80;;
69738;SDS011;66905;51.012;4.724;2023-01-28T06:56:46;9.55;;;6.70;;
69738;SDS011;66905;51.012;4.724;2023-01-28T06:59:12;11.00;;;6.40;;
69738;SDS011;66905;51.012;4.724;2023-01-28T07:01:37;11.18;;;6.30;;
69738;SDS011;66905;51.012;4.724;2023-01-28T07:04:03;11.82;;;6.75;;
69738;SDS011;66905;51.012;4.724;2023-01-28T07:06:31;11.13;;;6.90;;
69738;SDS011;66905;51.012;4.724;2023-01-28T07:08:57;9.90;;;6.75;;
69738;SDS011;66905;51.012;4.724;2023-01-28T07:11:23;11.18;;;6.25;;
69738;SDS011;66905;51.012;4.724;2023-01-28T07:13:48;8.88;;;5.88;;
69738;SDS011;66905;51.012;4.724;2023-01-28T07:16:14;10.95;;;6.22;;
69738;SDS011;66905;51.012;4.724;2023-01-28T07:18:40;12.35;;;6.82;;
69738;SDS011;66905;51.012;4.724;2023-01-28T07:21:06;13.35;;;8.00;;
69738;SDS011;66905;51.012;4.724;2023-01-28T07:23:32;11.02;;;6.43;;
69738;SDS011;66905;51.012;4.724;2023-01-28T07:26:01;11.98;;;6.88;;
69738;SDS011;66905;51.012;4.724;2023-01-28T07:28:28;12.55;;;6.65;;
69738;SDS011;66905;51.012;4.724;2023-01-28T07:30:53;12.70;;;7.53;;
69738;SDS011;66905;51.012;4.724;2023-01-28T07:33:19;13.60;;;7.22;;
69738;SDS011;66905;51.012;4.724;2023-01-28T07:35:45;13.18;;;7.10;;
69738;SDS011;66905;51.012;4.724;2023-01-28T07:38:13;10.13;;;6.57;;
69738;SDS011;66905;51.012;4.724;2023-01-28T07:40:39;11.02;;;7.13;;
69738;SDS011;66905;51.012;4.724;2023-01-28T07:43:09;13.27;;;7.47;;
69738;SDS011;66905;51.012;4.724;2023-01-28T07:45:37;13.07;;;6.60;;
69738;SDS011;66905;51.012;4.724;2023-01-28T07:48:04;9.95;;;6.10;;
69738;SDS011;66905;51.012;4.724;2023-01-28T07:50:32;11.77;;;6.75;;
69738;SDS011;66905;51.012;4.724;2023-01-28T07:53:03;13.70;;;7.25;;
69738;SDS011;66905;51.012;4.724;2023-01-28T07:55:33;12.45;;;7.30;;
69738;SDS011;66905;51.012;4.724;2023-01-28T07:58:03;11.18;;;7.50;;
69738;SDS011;66905;51.012;4.724;2023-01-28T08:00:33;11.27;;;7.28;;
69738;SDS011;66905;51.012;4.724;2023-01-28T08:03:08;13.75;;;7.97;;
69738;SDS011;66905;51.012;4.724;2023-01-28T08:05:46;15.63;;;8.52;;
69738;SDS011;66905;51.012;4.724;2023-01-28T08:08:14;12.70;;;8.23;;
69738;SDS011;66905;51.012;4.724;2023-01-28T08:10:41;18.52;;;7.80;;
69738;SDS011;66905;51.012;4.724;2023-01-28T08:13:10;14.20;;;8.07;;
69738;SDS011;66905;51.012;4.724;2023-01-28T08:15:37;16.33;;;8.02;;
69738;SDS011;66905;51.012;4.724;2023-01-28T08:18:03;14.48;;;8.43;;
69738;SDS011;66905;51.012;4.724;2023-01-28T08:20:30;16.00;;;8.35;;
69738;SDS011;66905;51.012;4.724;2023-01-28T08:23:06;16.02;;;7.93;;
69738;SDS011;66905;51.012;4.724;2023-01-28T08:25:33;12.00;;;7.32;;
69738;SDS011;66905;51.012;4.724;2023-01-28T08:27:59;14.30;;;8.00;;
69738;SDS011;66905;51.012;4.724;2023-01-28T08:30:25;16.13;;;9.20;;
69738;SDS011;66905;51.012;4.724;2023-01-28T08:32:53;16.77;;;8.75;;
69738;SDS011;66905;51.012;4.724;2023-01-28T08:35:21;12.23;;;7.32;;
69738;SDS011;66905;51.012;4.724;2023-01-28T08:37:46;14.07;;;8.48;;
69738;SDS011;66905;51.012;4.724;2023-01-28T08:40:19;14.55;;;8.10;;
69738;SDS011;66905;51.012;4.724;2023-01-28T08:42:46;14.30;;;8.55;;
69738;SDS011;66905;51.012;4.724;2023-01-28T08:45:13;16.45;;;8.13;;
69738;SDS011;66905;51.012;4.724;2023-01-28T08:50:44;13.05;;;7.13;;
69738;SDS011;66905;51.012;4.724;2023-01-28T08:53:11;14.63;;;7.47;;
69738;SDS011;66905;51.012;4.724;2023-01-28T08:55:41;14.93;;;8.27;;
69738;SDS011;66905;51.012;4.724;2023-01-28T08:58:09;15.30;;;9.10;;
69738;SDS011;66905;51.012;4.724;2023-01-28T09:00:40;18.55;;;9.27;;
69738;SDS011;66905;51.012;4.724;2023-01-28T09:03:09;16.27;;;9.27;;
69738;SDS011;66905;51.012;4.724;2023-01-28T09:05:35;16.05;;;8.82;;
69738;SDS011;66905;51.012;4.724;2023-01-28T09:08:03;13.23;;;7.97;;
69738;SDS011;66905;51.012;4.724;2023-01-28T09:10:30;13.02;;;8.00;;
69738;SDS011;66905;51.012;4.724;2023-01-28T09:12:56;15.13;;;9.15;;
69738;SDS011;66905;51.012;4.724;2023-01-28T09:15:24;15.45;;;8.80;;
69738;SDS011;66905;51.012;4.724;2023-01-28T09:17:55;12.13;;;7.45;;
69738;SDS011;66905;51.012;4.724;2023-01-28T09:20:22;14.98;;;8.02;;
69738;SDS011;66905;51.012;4.724;2023-01-28T09:22:48;13.02;;;7.32;;
69738;SDS011;66905;51.012;4.724;2023-01-28T09:25:14;14.75;;;8.30;;
69738;SDS011;66905;51.012;4.724;2023-01-28T09:27:41;13.25;;;7.32;;
69738;SDS011;66905;51.012;4.724;2023-01-28T09:30:07;15.45;;;8.07;;
69738;SDS011;66905;51.012;4.724;2023-01-28T09:32:34;15.60;;;8.13;;
69738;SDS011;66905;51.012;4.724;2023-01-28T09:35:00;14.20;;;8.70;;
69738;SDS011;66905;51.012;4.724;2023-01-28T09:37:26;15.77;;;8.35;;
69738;SDS011;66905;51.012;4.724;2023-01-28T09:39:52;13.35;;;7.82;;
69738;SDS011;66905;51.012;4.724;2023-01-28T09:42:32;13.82;;;7.95;;
69738;SDS011;66905;51.012;4.724;2023-01-28T09:47:54;15.13;;;9.13;;
69738;SDS011;66905;51.012;4.724;2023-01-28T09:53:06;13.30;;;7.18;;
69738;SDS011;66905;51.012;4.724;2023-01-28T09:55:42;17.80;;;7.53;;
69738;SDS011;66905;51.012;4.724;2023-01-28T09:58:29;14.80;;;7.60;;
69738;SDS011;66905;51.012;4.724;2023-01-28T10:04:09;13.65;;;7.57;;
69738;SDS011;66905;51.012;4.724;2023-01-28T10:17:36;18.63;;;8.35;;
69738;SDS011;66905;51.012;4.724;2023-01-28T10:22:43;13.52;;;7.13;;
69738;SDS011;66905;51.012;4.724;2023-01-28T10:27:49;12.65;;;7.13;;
69738;SDS011;66905;51.012;4.724;2023-01-28T10:35:18;14.23;;;7.10;;
69738;SDS011;66905;51.012;4.724;2023-01-28T10:37:45;19.23;;;8.93;;
69738;SDS011;66905;51.012;4.724;2023-01-28T10:40:12;14.18;;;8.13;;
69738;SDS011;66905;51.012;4.724;2023-01-28T10:42:46;13.23;;;7.47;;
69738;SDS011;66905;51.012;4.724;2023-01-28T10:48:12;14.48;;;8.20;;
69738;SDS011;66905;51.012;4.724;2023-01-28T10:51:16;12.27;;;7.07;;
69738;SDS011;66905;51.012;4.724;2023-01-28T10:53:44;9.90;;;6.10;;
69738;SDS011;66905;51.012;4.724;2023-01-28T10:56:14;16.40;;;8.50;;
69738;SDS011;66905;51.012;4.724;2023-01-28T10:59:02;12.23;;;7.28;;
69738;SDS011;66905;51.012;4.724;2023-01-28T11:01:37;15.05;;;8.43;;
69738;SDS011;66905;51.012;4.724;2023-01-28T11:04:03;14.55;;;7.90;;
69738;SDS011;66905;51.012;4.724;2023-01-28T11:06:29;14.70;;;8.55;;
69738;SDS011;66905;51.012;4.724;2023-01-28T11:08:57;15.90;;;8.43;;
69738;SDS011;66905;51.012;4.724;2023-01-28T11:11:24;15.98;;;8.35;;
69738;SDS011;66905;51.012;4.724;2023-01-28T11:13:51;15.88;;;8.48;;
69738;SDS011;66905;51.012;4.724;2023-01-28T11:16:18;14.20;;;7.70;;
69738;SDS011;66905;51.012;4.724;2023-01-28T11:21:29;15.98;;;9.18;;
69738;SDS011;66905;51.012;4.724;2023-01-28T11:24:03;15.25;;;9.70;;
69738;SDS011;66905;51.012;4.724;2023-01-28T11:26:38;21.73;;;11.68;;
69738;SDS011;66905;51.012;4.724;2023-01-28T11:32:20;17.23;;;9.80;;
69738;SDS011;66905;51.012;4.724;2023-01-28T11:34:51;18.27;;;9.15;;
69738;SDS011;66905;51.012;4.724;2023-01-28T11:37:21;16.58;;;9.80;;
69738;SDS011;66905;51.012;4.724;2023-01-28T11:39:59;20.27;;;9.95;;
69738;SDS011;66905;51.012;4.724;2023-01-28T11:42:25;14.70;;;8.65;;
69738;SDS011;66905;51.012;4.724;2023-01-28T11:44:54;17.13;;;9.40;;
69738;SDS011;66905;51.012;4.724;2023-01-28T11:47:34;14.80;;;9.77;;
69738;SDS011;66905;51.012;4.724;2023-01-28T11:50:21;19.48;;;10.52;;
69738;SDS011;66905;51.012;4.724;2023-01-28T11:58:56;20.35;;;10.63;;
69738;SDS011;66905;51.012;4.724;2023-01-28T12:11:56;13.85;;;8.43;;
69738;SDS011;66905;51.012;4.724;2023-01-28T12:17:20;18.70;;;9.40;;
69738;SDS011;66905;51.012;4.724;2023-01-28T12:19:56;14.38;;;8.02;;
69738;SDS011;66905;51.012;4.724;2023-01-28T12:31:15;13.15;;;8.10;;
69738;SDS011;66905;51.012;4.724;2023-01-28T12:36:27;14.20;;;9.75;;
69738;SDS011;66905;51.012;4.724;2023-01-28T12:39:10;12.27;;;7.53;;
69738;SDS011;66905;51.012;4.724;2023-01-28T12:41:45;12.90;;;8.13;;
69738;SDS011;66905;51.012;4.724;2023-01-28T12:44:48;13.73;;;7.20;;
69738;SDS011;66905;51.012;4.724;2023-01-28T12:47:18;11.23;;;7.32;;
69738;SDS011;66905;51.012;4.724;2023-01-28T12:49:55;13.77;;;7.93;;
69738;SDS011;66905;51.012;4.724;2023-01-28T12:52:49;13.38;;;7.45;;
69738;SDS011;66905;51.012;4.724;2023-01-28T12:55:18;13.77;;;8.05;;
69738;SDS011;66905;51.012;4.724;2023-01-28T12:58:08;12.95;;;7.88;;
69738;SDS011;66905;51.012;4.724;2023-01-28T13:00:45;11.15;;;8.10;;
69738;SDS011;66905;51.012;4.724;2023-01-28T13:06:05;11.77;;;7.85;;
69738;SDS011;66905;51.012;4.724;2023-01-28T13:08:37;11.25;;;7.57;;
69738;SDS011;66905;51.012;4.724;2023-01-28T13:11:05;12.63;;;8.13;;
69738;SDS011;66905;51.012;4.724;2023-01-28T13:13:41;13.48;;;8.63;;
69738;SDS011;66905;51.012;4.724;2023-01-28T13:16:09;14.77;;;9.32;;
69738;SDS011;66905;51.012;4.724;2023-01-28T13:21:04;12.68;;;8.02;;
69738;SDS011;66905;51.012;4.724;2023-01-28T13:24:02;14.27;;;9.00;;
69738;SDS011;66905;51.012;4.724;2023-01-28T13:26:41;15.05;;;8.55;;
69738;SDS011;66905;51.012;4.724;2023-01-28T13:29:32;17.35;;;8.57;;
69738;SDS011;66905;51.012;4.724;2023-01-28T13:32:00;13.60;;;8.57;;
69738;SDS011;66905;51.012;4.724;2023-01-28T13:34:29;15.35;;;8.32;;
69738;SDS011;66905;51.012;4.724;2023-01-28T13:36:58;12.63;;;8.70;;
69738;SDS011;66905;51.012;4.724;2023-01-28T13:39:27;12.55;;;9.38;;
69738;SDS011;66905;51.012;4.724;2023-01-28T13:42:06;15.07;;;8.57;;
69738;SDS011;66905;51.012;4.724;2023-01-28T13:44:46;13.43;;;8.95;;
69738;SDS011;66905;51.012;4.724;2023-01-28T13:47:18;17.83;;;9.73;;
69738;SDS011;66905;51.012;4.724;2023-01-28T13:49:54;13.65;;;8.75;;
69738;SDS011;66905;51.012;4.724;2023-01-28T13:52:28;11.38;;;8.07;;
69738;SDS011;66905;51.012;4.724;2023-01-28T14:00:14;15.30;;;9.07;;
69738;SDS011;66905;51.012;4.724;2023-01-28T14:19:34;13.02;;;7.30;;
69738;SDS011;66905;51.012;4.724;2023-01-28T14:22:07;12.70;;;7.18;;
69738;SDS011;66905;51.012;4.724;2023-01-28T14:24:36;15.75;;;8.05;;
69738;SDS011;66905;51.012;4.724;2023-01-28T14:29:59;13.13;;;7.83;;
69738;SDS011;66905;51.012;4.724;2023-01-28T14:32:46;15.02;;;8.40;;
69738;SDS011;66905;51.012;4.724;2023-01-28T14:35:23;14.38;;;7.97;;
69738;SDS011;66905;51.012;4.724;2023-01-28T14:37:53;14.55;;;7.28;;
69738;SDS011;66905;51.012;4.724;2023-01-28T14:40:23;10.45;;;6.20;;
69738;SDS011;66905;51.012;4.724;2023-01-28T14:42:50;12.32;;;7.15;;
69738;SDS011;66905;51.012;4.724;2023-01-28T14:55:55;10.10;;;6.97;;
69738;SDS011;66905;51.012;4.724;2023-01-28T14:58:45;11.43;;;6.90;;
69738;SDS011;66905;51.012;4.724;2023-01-28T15:01:23;11.35;;;6.80;;
69738;SDS011;66905;51.012;4.724;2023-01-28T15:03:51;10.93;;;6.63;;
69738;SDS011;66905;51.012;4.724;2023-01-28T15:06:21;14.23;;;8.13;;
69738;SDS011;66905;51.012;4.724;2023-01-28T15:08:51;14.38;;;7.75;;
69738;SDS011;66905;51.012;4.724;2023-01-28T15:11:24;12.73;;;8.00;;
69738;SDS011;66905;51.012;4.724;2023-01-28T15:13:54;11.05;;;7.05;;
69738;SDS011;66905;51.012;4.724;2023-01-28T15:16:23;11.98;;;8.15;;
69738;SDS011;66905;51.012;4.724;2023-01-28T15:18:54;14.47;;;8.70;;
69738;SDS011;66905;51.012;4.724;2023-01-28T15:21:22;13.85;;;8.75;;
69738;SDS011;66905;51.012;4.724;2023-01-28T15:23:52;13.10;;;8.48;;
69738;SDS011;66905;51.012;4.724;2023-01-28T15:26:22;12.65;;;7.97;;
69738;SDS011;66905;51.012;4.724;2023-01-28T15:28:53;11.60;;;7.93;;
69738;SDS011;66905;51.012;4.724;2023-01-28T15:34:15;13.95;;;9.18;;
69738;SDS011;66905;51.012;4.724;2023-01-28T15:36:43;18.95;;;9.45;;
69738;SDS011;66905;51.012;4.724;2023-01-28T15:39:16;15.02;;;9.25;;
69738;SDS011;66905;51.012;4.724;2023-01-28T15:41:56;12.48;;;7.60;;
69738;SDS011;66905;51.012;4.724;2023-01-28T15:44:35;13.93;;;8.00;;
69738;SDS011;66905;51.012;4.724;2023-01-28T15:47:48;14.40;;;8.30;;
69738;SDS011;66905;51.012;4.724;2023-01-28T15:49:53;14.50;;;9.43;;
69738;SDS011;66905;51.012;4.724;2023-01-28T15:55:00;15.90;;;8.35;;
69738;SDS011;66905;51.012;4.724;2023-01-28T15:57:29;12.68;;;7.90;;
69738;SDS011;66905;51.012;4.724;2023-01-28T16:02:30;13.80;;;8.07;;
69738;SDS011;66905;51.012;4.724;2023-01-28T16:05:28;13.07;;;7.72;;
69738;SDS011;66905;51.012;4.724;2023-01-28T16:08:23;12.20;;;7.25;;
69738;SDS011;66905;51.012;4.724;2023-01-28T16:10:56;14.43;;;7.75;;
69738;SDS011;66905;51.012;4.724;2023-01-28T16:13:23;14.63;;;7.63;;
69738;SDS011;66905;51.012;4.724;2023-01-28T16:15:54;16.65;;;8.93;;
69738;SDS011;66905;51.012;4.724;2023-01-28T16:21:29;16.00;;;8.82;;
69738;SDS011;66905;51.012;4.724;2023-01-28T16:24:03;15.65;;;8.90;;
69738;SDS011;66905;51.012;4.724;2023-01-28T16:26:31;24.15;;;11.23;;
69738;SDS011;66905;51.012;4.724;2023-01-28T16:29:12;16.92;;;9.50;;
69738;SDS011;66905;51.012;4.724;2023-01-28T16:31:39;18.67;;;9.23;;
69738;SDS011;66905;51.012;4.724;2023-01-28T16:34:06;19.27;;;10.30;;
69738;SDS011;66905;51.012;4.724;2023-01-28T16:36:34;14.68;;;8.05;;
69738;SDS011;66905;51.012;4.724;2023-01-28T16:39:02;14.35;;;8.48;;
69738;SDS011;66905;51.012;4.724;2023-01-28T16:41:30;15.70;;;9.30;;
69738;SDS011;66905;51.012;4.724;2023-01-28T16:44:01;18.60;;;8.45;;
69738;SDS011;66905;51.012;4.724;2023-01-28T16:46:29;21.25;;;11.05;;
69738;SDS011;66905;51.012;4.724;2023-01-28T16:48:55;17.77;;;9.07;;
69738;SDS011;66905;51.012;4.724;2023-01-28T16:51:24;19.60;;;9.32;;
69738;SDS011;66905;51.012;4.724;2023-01-28T16:53:50;24.08;;;9.88;;
69738;SDS011;66905;51.012;4.724;2023-01-28T16:56:17;19.80;;;9.77;;
69738;SDS011;66905;51.012;4.724;2023-01-28T16:58:50;17.98;;;10.30;;
69738;SDS011;66905;51.012;4.724;2023-01-28T17:01:16;14.10;;;7.88;;
69738;SDS011;66905;51.012;4.724;2023-01-28T17:03:41;16.50;;;8.00;;
69738;SDS011;66905;51.012;4.724;2023-01-28T17:06:07;17.60;;;9.05;;
69738;SDS011;66905;51.012;4.724;2023-01-28T17:08:39;14.10;;;7.05;;
69738;SDS011;66905;51.012;4.724;2023-01-28T17:11:07;14.70;;;8.70;;
69738;SDS011;66905;51.012;4.724;2023-01-28T17:13:35;16.60;;;8.85;;
69738;SDS011;66905;51.012;4.724;2023-01-28T17:16:01;17.02;;;7.70;;
69738;SDS011;66905;51.012;4.724;2023-01-28T17:18:28;16.77;;;8.88;;
69738;SDS011;66905;51.012;4.724;2023-01-28T17:21:05;16.92;;;8.48;;